Mileston, Mississippi
Current Conditions -  °F | °C
As of 2:53 PM on Friday 19 Dec 2014 (Local Time) from KGWO Reporting Station
Light Rain Light Rain  
Wind Chill: 44°   Ceiling: 9000
Heat Index: 47°   Visibility: 9mi
Dew Point: 45°   Wind: 6mph
Humidity: 93%   Direction: 30°NNE
Pressure: 30.17"   Gusts: NA
Location:  33.1467°N, 90.274°W
Report Text: KGWO 192053Z AUTO 03005KT 9SM -RA FEW050 OVC090 08/07 A3017 RMK AO2 SLP216 P0002 60004 T00830072 56020
Loading
Personal Weather Stations






























Interactive Weather Map New forecast layout! Learn more

10-Day Weather Forecast

Advertisements
Track Severe Weather on mobile